Flight Track Log - Related Links

Times and Time Zones

All times are in EDT time to prevent confusion due to time zone crossing. See the DAL6197 flight status page for this flight to view local times or setup timezone preferences in your user account.


Time Position Orientation Groundspeed Altitude Reporting Facility
EDT Latitude Longitude Course Direction KTS MPH feet Rate Location/Type
Mon 11:17:13 AM 42.9333 -78.7500 180° South 145 167 1,700  Level Buffalo TRACON
Mon 11:18:01 AM 42.9000 -78.7500 180° South 178 205 3,400 2,037 Climbing Buffalo TRACON
Mon 11:19:02 AM 42.8739 -78.6739 115° Southeast 227 261 5,400 2,678 Climbing Cleveland Center
Mon 11:20:02 AM 42.8739 -78.5519 90° East 257 296 8,800 2,900 Climbing Cleveland Center
Mon 11:21:02 AM 42.8825 -78.4525 83° East 288 331 11,200 2,100 Climbing Cleveland Center
Mon 11:22:02 AM 42.8739 -78.3281 95° East 308 354 13,000 2,100 Climbing Cleveland Center
Mon 11:23:02 AM 42.8586 -78.1956 99° East 331 381 15,400 2,250 Climbing Cleveland Center
Mon 11:24:02 AM 42.8411 -78.0575 100° East 352 405 17,500 1,900 Climbing Cleveland Center
Mon 11:25:02 AM 42.8233 -77.9139 100° East 373 429 19,200 1,800 Climbing Cleveland Center
Mon 11:26:02 AM 42.8047 -77.7503 99° East 389 448 21,100 1,700 Climbing Cleveland Center
Mon 11:27:02 AM 42.7842 -77.5928 100° East 401 461 22,600 950 Climbing Cleveland Center
Mon 11:28:02 AM 42.7631 -77.4297 100° East 421 484 23,000 200 Climbing Cleveland Center
Mon 11:29:02 AM 42.7419 -77.2642 100° East 434 499 23,000  Level Cleveland Center
Mon 11:30:13 AM 42.7169 -77.0669 100° East 436 502 23,000 458 Level Boston Center
Mon 11:31:13 AM 42.7297 -76.9011 84° East 441 507 24,000 1,140 Climbing Boston Center
Mon 11:32:14 AM 42.7467 -76.7297 82° East 441 507 25,300 1,240 Climbing Boston Center
Mon 11:33:14 AM 42.7658 -76.5556 81° East 447 514 26,500 850 Climbing Boston Center
Mon 11:34:14 AM 42.7425 -76.3844 100° East 453 521 27,000 248 Climbing Boston Center
Mon 11:35:15 AM 42.7083 -76.2294 107° East 458 527 27,000 -50 Level Boston Center
Mon 11:36:14 AM 42.6658 -76.0575 109° East 463 533 26,900  Descending Boston Center
Mon 11:37:14 AM 42.6253 -75.8858 108° East 474 545 27,000 50 Climbing Boston Center
Mon 11:38:15 AM 42.5803 -75.7139 110° East 474 545 27,000  Level Boston Center
Mon 11:39:13 AM 42.5394 -75.5372 107° East 474 545 27,000  Level Boston Center
Mon 11:40:13 AM 42.4942 -75.3631 109° East 479 551 27,000  Level Boston Center
Mon 11:41:14 AM 42.4483 -75.1892 110° East 485 558 27,000 -393 Level Boston Center
Mon 11:42:15 AM 42.3875 -75.0292 117° Southeast 485 558 26,200 -1,613 Descending Boston Center
Mon 11:43:13 AM 42.3286 -74.8694 116° Southeast 473 544 23,800 -2,441 Descending Boston Center
Mon 11:44:13 AM 42.2714 -74.7156 117° Southeast 467 537 21,400 -2,150 Descending Boston Center
Mon 11:45:13 AM 42.2178 -74.5678 116° Southeast 454 522 19,500 -1,686 Descending Boston Center
Mon 11:46:14 AM 42.1642 -74.4231 117° Southeast 441 507 18,000 -738 Descending Boston Center
Mon 11:47:15 AM 42.1042 -74.2731 118° Southeast 425 489 18,000  Level Boston Center
Mon 11:48:27 AM 42.0456 -74.1511 123° Southeast 425 489 18,000  Level Boston Center
Mon 11:49:28 AM 41.9606 -73.9811 124° Southeast 425 489 18,000 -50 Level Boston Center
Mon 11:50:26 AM 41.8956 -73.8569 125° Southeast 425 489 17,900 -454 Descending Boston Center
Mon 11:51:27 AM 41.8231 -73.8136 156° South 397 457 17,100 -1,785 Descending Boston Center
Mon 11:52:27 AM 41.6856 -73.8022 176° South 383 441 14,300 -2,373 Descending Boston Center
Mon 11:53:41 AM 41.5500 -73.8000 179° South 329 379 11,800 -1,746 Descending New York TRACON
Mon 11:54:41 AM 41.4667 -73.8000 180° South 298 343 10,400 -1,250 Descending New York TRACON
Mon 11:55:41 AM 41.3833 -73.8000 180° South 293 337 9,300 -1,100 Descending New York TRACON
Mon 11:56:41 AM 41.3167 -73.7667 159° South 298 343 8,200 -1,100 Descending New York TRACON
Mon 11:57:41 AM 41.2500 -73.7000 143° Southeast 297 342 7,100 -600 Descending New York TRACON
Mon 11:58:41 AM 41.1833 -73.6500 151° Southeast 293 337 7,000 -500 Descending New York TRACON
Mon 11:59:41 AM 41.1167 -73.6333 169° South 282 325 6,100 -1,000 Descending New York TRACON
Mon 12:00:41 PM 41.0667 -73.7167 232° Southwest 246 283 5,000 -1,050 Descending New York TRACON
Mon 12:01:41 PM 41.0333 -73.7833 236° Southwest 212 244 4,000 -500 Descending New York TRACON
Mon 12:02:41 PM 41.0000 -73.8333 229° Southwest 201 231 4,000  Level New York TRACON
Mon 12:03:41 PM 40.9667 -73.8833 229° Southwest 203 234 4,000  Level New York TRACON
Mon 12:04:41 PM 40.9167 -73.9167 207° Southwest 201 231 4,000 -200 Level New York TRACON
Mon 12:05:41 PM 40.8500 -73.9500 201° Southwest 206 237 3,600 -500 Descending New York TRACON
Mon 12:06:41 PM 40.8000 -73.9833 207° Southwest 202 232 3,000 -300 Descending New York TRACON
Mon 12:07:41 PM 40.7500 -74.0000 194° South 208 239 3,000  Level New York TRACON
Mon 12:08:41 PM 40.7000 -74.0333 207° Southwest 174 200 3,000 -350 Level New York TRACON
Mon 12:09:41 PM 40.6833 -73.9833 114° Southeast 186 214 2,300 -700 Descending New York TRACON
Mon 12:10:41 PM 40.7000 -73.9333 66° East 143 165 1,600 -750 Descending New York TRACON
Mon 12:11:41 PM 40.7333 -73.9167 21° North 136 157 800 -800 Descending New York TRACON

Login

Don't have an account? Register now (free) for customized features, flight alerts, and more!